createdAt,value
2023-05-23T00:01:00.725Z,10.80
2023-05-23T00:03:27.618Z,10.82
2023-05-23T00:05:56.449Z,10.70
2023-05-23T00:08:23.045Z,10.52
2023-05-23T00:10:49.632Z,10.80
2023-05-23T00:13:16.225Z,11.38
2023-05-23T00:15:43.006Z,10.75
2023-05-23T00:18:11.176Z,10.48
2023-05-23T00:20:40.949Z,11.43
2023-05-23T00:23:08.802Z,11.40
2023-05-23T00:25:38.428Z,11.68
2023-05-23T00:28:05.476Z,11.82
2023-05-23T00:30:33.308Z,11.93
2023-05-23T00:33:03.676Z,11.48
2023-05-23T00:35:33.412Z,11.45
2023-05-23T00:38:02.222Z,11.77
2023-05-23T00:40:29.059Z,11.35
2023-05-23T00:42:56.241Z,10.63
2023-05-23T00:45:22.851Z,11.07
2023-05-23T00:47:49.842Z,10.82
2023-05-23T00:50:16.311Z,10.73
2023-05-23T00:52:44.560Z,10.85
2023-05-23T00:55:11.661Z,11.20
2023-05-23T00:57:41.710Z,11.25
2023-05-23T01:00:10.042Z,11.73
2023-05-23T01:02:41.658Z,11.18
2023-05-23T01:05:08.671Z,11.25
2023-05-23T01:07:36.044Z,11.38
2023-05-23T01:10:03.716Z,10.75
2023-05-23T01:12:50.071Z,11.82
2023-05-23T01:15:18.245Z,11.07
2023-05-23T01:17:49.332Z,11.63
2023-05-23T01:20:19.669Z,10.23
2023-05-23T01:23:03.801Z,10.60
2023-05-23T01:25:30.659Z,11.27
2023-05-23T01:28:05.838Z,11.15
2023-05-23T01:30:35.221Z,11.25
2023-05-23T01:33:02.191Z,11.45
2023-05-23T01:35:31.549Z,11.40
2023-05-23T01:37:58.347Z,11.23
2023-05-23T01:40:25.890Z,10.93
2023-05-23T01:42:53.730Z,11.65
2023-05-23T01:45:21.474Z,10.88
2023-05-23T01:47:50.287Z,10.75
2023-05-23T01:50:17.616Z,10.70
2023-05-23T01:52:44.499Z,10.15
2023-05-23T01:55:12.452Z,9.85
2023-05-23T01:57:39.402Z,9.80
2023-05-23T02:00:06.871Z,10.07
2023-05-23T02:02:40.138Z,9.90
2023-05-23T02:05:06.940Z,9.40
2023-05-23T02:07:33.521Z,10.57
2023-05-23T02:10:00.349Z,10.48
2023-05-23T02:12:28.378Z,9.90
2023-05-23T02:14:55.350Z,10.25
2023-05-23T02:17:25.011Z,9.70
2023-05-23T02:19:51.560Z,9.35
2023-05-23T02:22:18.206Z,10.10
2023-05-23T02:24:44.731Z,9.45
2023-05-23T02:27:15.505Z,9.35
2023-05-23T02:29:42.270Z,9.57
2023-05-23T02:32:08.864Z,9.60
2023-05-23T02:34:35.360Z,9.13
2023-05-23T02:37:04.706Z,9.13
2023-05-23T02:39:31.252Z,9.43
2023-05-23T02:41:57.813Z,9.63
2023-05-23T02:44:29.815Z,9.55
2023-05-23T02:46:57.088Z,9.95
2023-05-23T02:49:23.669Z,9.48
2023-05-23T02:51:51.058Z,9.43
2023-05-23T02:54:17.699Z,10.80
2023-05-23T02:56:45.386Z,10.30
2023-05-23T02:59:12.375Z,9.52
2023-05-23T03:01:39.090Z,10.23
2023-05-23T03:04:05.806Z,10.23
2023-05-23T03:06:34.240Z,10.27
2023-05-23T03:09:01.339Z,10.43
2023-05-23T03:11:29.863Z,10.35
2023-05-23T03:13:56.588Z,10.13
2023-05-23T03:16:24.283Z,10.18
2023-05-23T03:18:51.019Z,11.82
2023-05-23T03:21:17.750Z,11.32
2023-05-23T03:23:44.308Z,10.80
2023-05-23T03:26:11.844Z,11.05
2023-05-23T03:28:40.788Z,11.40
2023-05-23T03:31:07.522Z,11.75
2023-05-23T03:33:36.155Z,11.90
2023-05-23T03:36:04.263Z,12.18
2023-05-23T03:38:30.870Z,11.65
2023-05-23T03:40:57.893Z,11.20
2023-05-23T03:43:24.704Z,11.88
2023-05-23T03:45:51.296Z,11.07
2023-05-23T03:48:18.141Z,10.43
2023-05-23T03:50:44.808Z,10.20
2023-05-23T03:53:12.108Z,10.07
2023-05-23T03:55:39.446Z,10.38
2023-05-23T03:58:06.338Z,10.63
2023-05-23T04:00:33.077Z,10.45
2023-05-23T04:03:01.430Z,11.30
2023-05-23T04:05:29.048Z,10.93
2023-05-23T04:07:55.614Z,11.02
2023-05-23T04:10:22.575Z,11.57
2023-05-23T04:12:49.271Z,12.13
2023-05-23T04:15:18.043Z,12.68
2023-05-23T04:17:54.611Z,13.07
2023-05-23T04:20:21.348Z,12.98
2023-05-23T04:22:47.875Z,12.65
2023-05-23T04:25:14.428Z,13.07
2023-05-23T04:27:48.234Z,13.85
2023-05-23T04:30:16.915Z,13.82
2023-05-23T04:32:43.964Z,14.20
2023-05-23T04:35:13.540Z,13.73
2023-05-23T04:37:42.855Z,14.38
2023-05-23T04:40:09.765Z,14.48
2023-05-23T04:42:57.242Z,13.90
2023-05-23T04:45:38.397Z,12.55
2023-05-23T04:48:21.528Z,13.63
2023-05-23T04:50:48.887Z,13.23
2023-05-23T04:53:15.589Z,12.75
2023-05-23T04:55:42.519Z,12.85
2023-05-23T04:58:13.788Z,12.75
2023-05-23T05:00:41.811Z,12.13
2023-05-23T05:03:10.077Z,12.45
2023-05-23T05:05:41.176Z,13.35
2023-05-23T05:08:07.800Z,12.27
2023-05-23T05:10:35.095Z,12.43
2023-05-23T05:13:02.479Z,12.05
2023-05-23T05:15:35.738Z,13.10
2023-05-23T05:18:02.558Z,13.10
2023-05-23T05:20:29.902Z,13.05
2023-05-23T05:23:00.246Z,12.82
2023-05-23T05:25:31.961Z,13.38
2023-05-23T05:28:02.141Z,12.85
2023-05-23T05:30:30.726Z,13.57
2023-05-23T05:33:02.137Z,14.13
2023-05-23T05:35:29.597Z,14.25
2023-05-23T05:37:56.166Z,14.18
2023-05-23T05:40:23.400Z,13.43
2023-05-23T05:42:50.792Z,12.85
2023-05-23T05:45:18.134Z,12.20
2023-05-23T05:47:46.854Z,11.68
2023-05-23T05:50:13.643Z,11.50
2023-05-23T05:52:41.359Z,11.93
2023-05-23T05:55:11.484Z,12.40
2023-05-23T05:57:39.956Z,12.45
2023-05-23T06:00:13.597Z,11.75
2023-05-23T06:02:45.194Z,12.07
2023-05-23T06:05:16.310Z,11.90
2023-05-23T06:07:43.542Z,12.10
2023-05-23T06:10:13.148Z,11.85
2023-05-23T06:12:39.848Z,12.25
2023-05-23T06:15:06.999Z,12.88
2023-05-23T06:17:33.636Z,12.07
2023-05-23T06:20:00.241Z,11.75
2023-05-23T06:22:27.191Z,12.20
2023-05-23T06:24:53.877Z,12.40
2023-05-23T06:27:20.402Z,11.25
2023-05-23T06:29:47.010Z,11.57
2023-05-23T06:32:13.495Z,11.63
2023-05-23T06:34:42.869Z,11.02
2023-05-23T06:37:09.431Z,11.48
2023-05-23T06:39:35.954Z,12.63
2023-05-23T06:42:02.598Z,11.70
2023-05-23T06:44:39.320Z,13.13
2023-05-23T06:47:06.237Z,12.93
2023-05-23T06:49:32.777Z,13.10
2023-05-23T06:51:59.290Z,14.32
2023-05-23T06:54:26.402Z,13.85
2023-05-23T06:56:53.010Z,15.32
2023-05-23T06:59:20.404Z,15.80
2023-05-23T07:01:47.034Z,16.52
2023-05-23T07:04:14.534Z,17.60
2023-05-23T07:06:41.258Z,18.02
2023-05-23T07:09:07.989Z,18.58
2023-05-23T07:11:35.639Z,17.33
2023-05-23T07:14:02.178Z,18.25
2023-05-23T07:16:41.510Z,17.10
2023-05-23T07:19:08.507Z,18.48
2023-05-23T07:21:42.045Z,18.83
2023-05-23T07:24:09.441Z,21.17
2023-05-23T07:26:37.446Z,22.33
2023-05-23T07:29:05.891Z,20.77
2023-05-23T07:31:32.728Z,22.00
2023-05-23T07:34:01.198Z,21.95
2023-05-23T07:36:35.791Z,22.70
2023-05-23T07:39:03.899Z,25.23
2023-05-23T07:41:30.542Z,24.20
2023-05-23T07:43:58.593Z,24.45
2023-05-23T07:46:25.168Z,23.17
2023-05-23T07:48:51.905Z,21.90
2023-05-23T07:51:21.279Z,19.48
2023-05-23T07:53:49.318Z,19.25
2023-05-23T07:56:17.067Z,18.10
2023-05-23T07:58:43.613Z,17.83
2023-05-23T08:01:10.503Z,18.20
2023-05-23T08:04:00.200Z,20.02
2023-05-23T08:06:36.556Z,19.27
2023-05-23T08:09:06.987Z,19.77
2023-05-23T08:11:38.184Z,20.02
2023-05-23T08:14:06.065Z,20.35
2023-05-23T08:16:47.773Z,19.02
2023-05-23T08:19:23.160Z,19.85
2023-05-23T08:21:51.152Z,20.63
2023-05-23T08:24:17.659Z,21.85
2023-05-23T08:26:44.759Z,21.08
2023-05-23T08:29:13.720Z,21.45
2023-05-23T08:31:41.751Z,24.42
2023-05-23T08:34:09.416Z,24.83
2023-05-23T08:36:39.792Z,24.98
2023-05-23T08:39:08.412Z,24.50
2023-05-23T08:41:40.514Z,23.92
2023-05-23T08:44:10.793Z,24.23
2023-05-23T08:46:46.458Z,24.52
2023-05-23T08:49:22.633Z,24.35
2023-05-23T08:51:52.064Z,22.95
2023-05-23T08:54:22.211Z,21.95
2023-05-23T08:56:48.902Z,20.65
2023-05-23T08:59:16.117Z,19.73
2023-05-23T09:01:43.798Z,19.60
2023-05-23T09:04:12.395Z,19.33
2023-05-23T09:07:05.534Z,18.05
2023-05-23T09:09:34.228Z,17.02
2023-05-23T09:12:03.411Z,16.92
2023-05-23T09:14:31.721Z,16.95
2023-05-23T09:17:04.609Z,16.55
2023-05-23T09:19:32.301Z,17.00
2023-05-23T09:22:14.914Z,14.90
2023-05-23T09:24:58.829Z,13.57
2023-05-23T09:27:27.109Z,13.30
2023-05-23T09:29:53.948Z,14.00
2023-05-23T09:32:21.432Z,13.45
2023-05-23T09:35:02.543Z,12.90
2023-05-23T09:37:30.039Z,13.35
2023-05-23T09:39:57.188Z,12.77
2023-05-23T09:42:24.115Z,12.38
2023-05-23T09:44:51.082Z,12.80
2023-05-23T09:47:17.798Z,12.93
2023-05-23T09:49:44.911Z,13.43
2023-05-23T09:52:12.507Z,12.90
2023-05-23T09:54:39.350Z,12.25
2023-05-23T09:57:10.205Z,11.35
2023-05-23T09:59:41.318Z,12.50
2023-05-23T10:02:11.168Z,11.60
2023-05-23T10:04:39.679Z,12.15
2023-05-23T10:07:17.503Z,12.27
2023-05-23T10:09:47.475Z,11.27
2023-05-23T10:12:19.968Z,11.55
2023-05-23T10:14:52.072Z,10.85
2023-05-23T10:17:20.177Z,11.05
2023-05-23T10:19:52.237Z,9.63
2023-05-23T10:22:21.248Z,10.20
2023-05-23T10:24:48.439Z,8.95
2023-05-23T10:27:15.310Z,9.13
2023-05-23T10:29:42.397Z,8.02
2023-05-23T10:32:09.910Z,7.60
2023-05-23T10:34:57.968Z,7.63
2023-05-23T10:37:29.674Z,7.32
2023-05-23T10:39:59.165Z,6.78
2023-05-23T10:42:35.372Z,6.30
2023-05-23T10:45:17.103Z,5.47
2023-05-23T10:47:43.711Z,5.55
2023-05-23T10:50:14.887Z,4.63
2023-05-23T10:52:41.935Z,4.85
2023-05-23T10:55:17.923Z,4.45
2023-05-23T10:57:49.912Z,4.20
2023-05-23T11:00:18.099Z,4.25
2023-05-23T11:02:57.364Z,4.53
2023-05-23T11:05:25.162Z,3.88
2023-05-23T11:08:18.041Z,3.72
2023-05-23T11:10:55.337Z,4.68
2023-05-23T11:13:22.592Z,4.35
2023-05-23T11:15:49.226Z,4.28
2023-05-23T11:18:27.168Z,4.53
2023-05-23T11:20:54.521Z,4.50
2023-05-23T11:23:21.989Z,4.20
2023-05-23T11:25:49.621Z,4.32
2023-05-23T11:28:17.318Z,4.25
2023-05-23T11:30:44.422Z,4.30
2023-05-23T11:33:14.674Z,4.35
2023-05-23T11:35:41.927Z,4.10
2023-05-23T11:38:09.210Z,4.18
2023-05-23T11:40:36.005Z,4.65
2023-05-23T11:43:04.443Z,4.13
2023-05-23T11:45:34.244Z,4.85
2023-05-23T11:48:11.682Z,4.90
2023-05-23T11:50:51.430Z,4.28
2023-05-23T11:53:21.105Z,4.82
2023-05-23T11:55:53.040Z,4.35
2023-05-23T11:58:20.991Z,4.03
2023-05-23T12:00:47.613Z,3.92
2023-05-23T12:03:14.316Z,4.18
2023-05-23T12:05:43.071Z,3.60
2023-05-23T12:08:15.821Z,3.63
2023-05-23T12:10:52.659Z,3.97
2023-05-23T12:13:20.053Z,4.20
2023-05-23T12:15:47.727Z,3.90
2023-05-23T12:18:16.387Z,3.90
2023-05-23T12:20:43.179Z,4.38
2023-05-23T12:23:17.743Z,3.95
2023-05-23T12:25:44.456Z,3.70
2023-05-23T12:28:13.752Z,3.72
2023-05-23T12:30:43.658Z,3.90
2023-05-23T12:33:10.589Z,3.78
2023-05-23T12:35:37.134Z,3.28
2023-05-23T12:38:07.134Z,3.17
2023-05-23T12:40:33.673Z,2.65
2023-05-23T12:43:00.339Z,3.17
2023-05-23T12:45:34.126Z,2.90
2023-05-23T12:48:02.133Z,2.97
2023-05-23T12:50:29.096Z,3.33
2023-05-23T12:52:56.106Z,3.08
2023-05-23T12:55:22.801Z,3.13
2023-05-23T12:57:49.467Z,3.58
2023-05-23T13:00:19.685Z,4.05
2023-05-23T13:02:46.576Z,4.13
2023-05-23T13:05:13.151Z,4.30
2023-05-23T13:07:39.758Z,4.07
2023-05-23T13:10:06.629Z,4.20
2023-05-23T13:12:34.338Z,3.92
2023-05-23T13:15:01.108Z,3.90
2023-05-23T13:17:28.004Z,4.25
2023-05-23T13:19:54.626Z,4.40
2023-05-23T13:22:21.218Z,4.90
2023-05-23T13:24:49.980Z,4.13
2023-05-23T13:27:16.575Z,4.68
2023-05-23T13:29:43.150Z,3.83
2023-05-23T13:32:09.959Z,3.63
2023-05-23T13:34:37.499Z,3.83
2023-05-23T13:37:04.852Z,4.57
2023-05-23T13:39:31.462Z,4.40
2023-05-23T13:41:58.005Z,4.60
2023-05-23T13:44:24.629Z,4.93
2023-05-23T13:46:51.359Z,4.88
2023-05-23T13:49:17.987Z,5.13
2023-05-23T13:51:44.640Z,5.45
2023-05-23T13:54:11.728Z,5.35
2023-05-23T13:56:39.798Z,4.07
2023-05-23T13:59:06.512Z,3.08
2023-05-23T14:01:33.284Z,2.90
2023-05-23T14:03:59.881Z,3.20
2023-05-23T14:06:26.413Z,2.95
2023-05-23T14:08:52.923Z,3.40
2023-05-23T14:11:19.712Z,3.08
2023-05-23T14:13:46.279Z,3.45
2023-05-23T14:16:12.924Z,3.70
2023-05-23T14:18:39.645Z,3.63
2023-05-23T14:21:06.193Z,3.78
2023-05-23T14:23:32.720Z,3.58
2023-05-23T14:25:59.350Z,3.97
2023-05-23T14:28:26.062Z,4.88
2023-05-23T14:30:52.651Z,6.38
2023-05-23T14:33:19.678Z,6.88
2023-05-23T14:35:46.968Z,8.32
2023-05-23T14:38:13.402Z,8.73
2023-05-23T14:40:40.082Z,8.48
2023-05-23T14:43:09.081Z,8.43
2023-05-23T14:45:36.088Z,8.80
2023-05-23T14:48:03.069Z,7.72
2023-05-23T14:50:31.122Z,8.95
2023-05-23T14:52:58.032Z,8.52
2023-05-23T14:55:24.679Z,8.68
2023-05-23T14:57:51.254Z,8.65
2023-05-23T15:00:18.426Z,8.68
2023-05-23T15:02:45.373Z,8.43
2023-05-23T15:05:12.586Z,8.13
2023-05-23T15:07:39.426Z,6.95
2023-05-23T15:10:06.711Z,7.38
2023-05-23T15:12:33.394Z,7.05
2023-05-23T15:15:03.804Z,6.53
2023-05-23T15:17:33.604Z,6.97
2023-05-23T15:20:00.856Z,6.13
2023-05-23T15:22:36.461Z,6.63
2023-05-23T15:25:05.513Z,7.40
2023-05-23T15:27:31.981Z,6.65
2023-05-23T15:29:59.077Z,7.32
2023-05-23T15:32:25.841Z,7.25
2023-05-23T15:34:52.925Z,7.35
2023-05-23T15:37:20.091Z,8.57
2023-05-23T15:39:47.129Z,9.13
2023-05-23T15:42:13.970Z,8.57
2023-05-23T15:44:40.749Z,9.27
2023-05-23T15:47:07.362Z,9.35
2023-05-23T15:49:34.978Z,8.68
2023-05-23T15:52:01.462Z,8.05
2023-05-23T15:54:28.003Z,8.80
2023-05-23T15:56:54.816Z,9.15
2023-05-23T15:59:21.354Z,8.93
2023-05-23T16:01:47.925Z,8.30
2023-05-23T16:04:14.688Z,7.78
2023-05-23T16:06:41.257Z,8.35
2023-05-23T16:09:07.808Z,8.93
2023-05-23T16:11:34.414Z,8.98
2023-05-23T16:14:01.041Z,8.90
2023-05-23T16:16:27.714Z,9.65
2023-05-23T16:18:54.431Z,10.18
2023-05-23T16:21:21.127Z,9.27
2023-05-23T16:23:48.479Z,10.23
2023-05-23T16:26:16.007Z,10.95
2023-05-23T16:28:43.552Z,11.10
2023-05-23T16:31:14.025Z,11.13
2023-05-23T16:33:41.012Z,11.00
2023-05-23T16:36:07.632Z,11.25
2023-05-23T16:38:34.244Z,12.75
2023-05-23T16:41:00.869Z,14.27
2023-05-23T16:43:27.589Z,15.65
2023-05-23T16:45:54.295Z,18.25
2023-05-23T16:48:21.657Z,21.70
2023-05-23T16:50:48.174Z,21.02
2023-05-23T16:53:14.687Z,21.50
2023-05-23T16:55:41.468Z,19.10
2023-05-23T16:58:08.168Z,18.38
2023-05-23T17:00:34.619Z,18.05
2023-05-23T17:03:01.939Z,18.40
2023-05-23T17:05:28.504Z,17.73
2023-05-23T17:07:57.329Z,17.15
2023-05-23T17:10:23.968Z,15.73
2023-05-23T17:12:50.981Z,15.48
2023-05-23T17:15:18.888Z,15.98
2023-05-23T17:17:46.791Z,17.25
2023-05-23T17:20:13.378Z,19.13
2023-05-23T17:22:39.959Z,19.08
2023-05-23T17:25:06.618Z,18.20
2023-05-23T17:27:33.259Z,17.75
2023-05-23T17:30:05.125Z,17.90
2023-05-23T17:32:32.080Z,17.92
2023-05-23T17:34:58.674Z,16.63
2023-05-23T17:37:26.396Z,16.77
2023-05-23T17:39:54.614Z,16.55
2023-05-23T17:42:23.147Z,18.13
2023-05-23T17:44:49.707Z,18.40
2023-05-23T17:47:18.141Z,20.10
2023-05-23T17:49:44.885Z,22.25
2023-05-23T17:52:14.752Z,21.85
2023-05-23T17:54:43.967Z,22.70
2023-05-23T17:57:11.142Z,24.35
2023-05-23T17:59:37.597Z,23.50
2023-05-23T18:02:05.709Z,23.70
2023-05-23T18:04:32.350Z,25.13
2023-05-23T18:06:59.002Z,24.90
2023-05-23T18:09:25.572Z,25.17
2023-05-23T18:11:51.994Z,25.67
2023-05-23T18:14:18.518Z,26.27
2023-05-23T18:16:45.251Z,26.38
2023-05-23T18:19:12.135Z,27.85
2023-05-23T18:21:39.714Z,27.60
2023-05-23T18:24:07.440Z,28.42
2023-05-23T18:26:34.060Z,27.30
2023-05-23T18:29:02.091Z,27.83
2023-05-23T18:31:29.750Z,28.33
2023-05-23T18:33:56.233Z,27.00
2023-05-23T18:36:22.956Z,28.58
2023-05-23T18:38:49.531Z,27.17
2023-05-23T18:41:16.056Z,26.15
2023-05-23T18:43:42.606Z,24.63
2023-05-23T18:46:09.411Z,25.00
2023-05-23T18:48:36.188Z,23.38
2023-05-23T18:51:03.199Z,22.98
2023-05-23T18:53:29.805Z,23.38
2023-05-23T18:55:56.286Z,22.02
2023-05-23T18:58:22.812Z,20.75
2023-05-23T19:00:49.354Z,21.20
2023-05-23T19:03:16.753Z,21.27
2023-05-23T19:05:43.340Z,20.10
2023-05-23T19:08:09.886Z,20.17
2023-05-23T19:10:36.580Z,19.52
2023-05-23T19:13:03.832Z,20.08
2023-05-23T19:15:30.467Z,19.02
2023-05-23T19:17:57.162Z,20.15
2023-05-23T19:20:24.083Z,20.00
2023-05-23T19:22:52.349Z,19.13
2023-05-23T19:25:19.713Z,19.08
2023-05-23T19:27:46.309Z,18.95
2023-05-23T19:30:15.300Z,18.35
2023-05-23T19:32:41.918Z,19.17
2023-05-23T19:35:08.981Z,19.75
2023-05-23T19:37:35.596Z,21.02
2023-05-23T19:40:02.163Z,19.17
2023-05-23T19:42:28.714Z,19.02
2023-05-23T19:44:55.386Z,18.30
2023-05-23T19:47:22.052Z,18.25
2023-05-23T19:49:48.693Z,17.88
2023-05-23T19:52:15.272Z,19.08
2023-05-23T19:54:41.966Z,18.42
2023-05-23T19:57:08.806Z,17.88
2023-05-23T19:59:35.582Z,18.20
2023-05-23T20:02:02.735Z,18.40
2023-05-23T20:04:29.781Z,18.90
2023-05-23T20:06:57.392Z,17.55
2023-05-23T20:09:23.885Z,17.80
2023-05-23T20:11:50.594Z,17.52
2023-05-23T20:14:17.183Z,16.13
2023-05-23T20:16:43.734Z,17.10
2023-05-23T20:19:10.684Z,16.98
2023-05-23T20:21:37.159Z,18.77
2023-05-23T20:24:03.759Z,16.63
2023-05-23T20:26:30.385Z,16.10
2023-05-23T20:28:56.977Z,15.43
2023-05-23T20:31:23.844Z,15.60
2023-05-23T20:33:50.330Z,14.70
2023-05-23T20:36:19.874Z,14.93
2023-05-23T20:38:47.662Z,14.18
2023-05-23T20:41:14.258Z,13.82
2023-05-23T20:43:40.990Z,12.50
2023-05-23T20:46:09.187Z,13.25
2023-05-23T20:48:35.973Z,11.90
2023-05-23T20:51:05.580Z,11.90
2023-05-23T20:53:32.042Z,11.57
2023-05-23T20:55:58.750Z,9.95
2023-05-23T20:58:25.473Z,9.52
2023-05-23T21:00:52.128Z,9.98
2023-05-23T21:03:18.827Z,9.60
2023-05-23T21:05:45.555Z,9.95
2023-05-23T21:08:12.401Z,9.07
2023-05-23T21:10:39.183Z,8.52
2023-05-23T21:13:05.842Z,9.20
2023-05-23T21:15:32.455Z,8.55
2023-05-23T21:17:59.062Z,8.10
2023-05-23T21:20:25.729Z,9.70
2023-05-23T21:22:52.497Z,8.63
2023-05-23T21:25:18.950Z,9.05
2023-05-23T21:27:45.747Z,9.07
2023-05-23T21:30:12.702Z,8.90
2023-05-23T21:32:39.328Z,7.90
2023-05-23T21:35:06.423Z,7.90
2023-05-23T21:37:32.913Z,8.05
2023-05-23T21:39:59.519Z,7.40
2023-05-23T21:42:26.244Z,7.68
2023-05-23T21:44:52.829Z,7.22
2023-05-23T21:47:21.228Z,6.70
2023-05-23T21:49:48.124Z,7.22
2023-05-23T21:52:14.795Z,6.70
2023-05-23T21:54:41.286Z,6.63
2023-05-23T21:57:07.858Z,6.57
2023-05-23T21:59:34.674Z,6.32
2023-05-23T22:02:01.396Z,6.45
2023-05-23T22:04:28.099Z,7.35
2023-05-23T22:06:54.900Z,7.28
2023-05-23T22:09:21.456Z,7.20
2023-05-23T22:11:48.124Z,7.35
2023-05-23T22:14:14.576Z,6.45
2023-05-23T22:16:41.334Z,6.90
2023-05-23T22:19:09.733Z,6.22
2023-05-23T22:21:39.678Z,6.88
2023-05-23T22:24:06.408Z,7.13
2023-05-23T22:26:32.998Z,6.10
2023-05-23T22:29:00.025Z,6.65
2023-05-23T22:31:28.815Z,6.40
2023-05-23T22:33:55.650Z,6.43
2023-05-23T22:36:22.272Z,5.85
2023-05-23T22:38:48.932Z,6.60
2023-05-23T22:41:15.576Z,5.82
2023-05-23T22:43:42.235Z,6.43
2023-05-23T22:46:08.904Z,5.53
2023-05-23T22:48:35.506Z,5.65
2023-05-23T22:51:02.488Z,5.50
2023-05-23T22:53:29.906Z,5.80
2023-05-23T22:55:56.585Z,5.53
2023-05-23T22:58:23.345Z,5.68
2023-05-23T23:00:50.062Z,5.38
2023-05-23T23:03:16.742Z,5.55
2023-05-23T23:05:44.237Z,5.63
2023-05-23T23:08:13.511Z,5.38
2023-05-23T23:10:41.618Z,5.82
2023-05-23T23:13:08.458Z,5.15
2023-05-23T23:15:36.839Z,5.47
2023-05-23T23:18:05.387Z,5.95
2023-05-23T23:20:32.199Z,6.20
2023-05-23T23:22:58.836Z,5.88
2023-05-23T23:25:26.299Z,6.22
2023-05-23T23:27:52.881Z,5.72
2023-05-23T23:30:19.574Z,5.25
2023-05-23T23:32:46.421Z,5.80
2023-05-23T23:35:12.941Z,5.95
2023-05-23T23:37:39.443Z,5.40
2023-05-23T23:40:06.683Z,5.28
2023-05-23T23:42:33.350Z,6.28
2023-05-23T23:45:01.014Z,6.35
2023-05-23T23:47:27.691Z,5.70
2023-05-23T23:49:54.328Z,5.60
2023-05-23T23:52:21.282Z,4.50
2023-05-23T23:54:47.894Z,5.35
2023-05-23T23:57:14.485Z,4.78
2023-05-23T23:59:41.541Z,5.82
